Irvington, Indiana
Current Conditions -  °F | °C
As of 8:14 AM on Tuesday 21 Oct 2014 (Local Time) from KMQJ Reporting Station
Overcast Overcast  
Wind Chill: 46°   Ceiling: 4600
Heat Index: 48°   Visibility: 10mi
Dew Point: 46°   Wind: 6mph
Humidity: 93%   Direction: 320°NW
Pressure: 30.03"   Gusts: NA
Location:  39.7828°N, 86.044°W
Report Text: KMQJ 211214Z AUTO 32005KT 10SM OVC046 09/08 A3003 RMK AO1
Loading
Personal Weather Stations






























Interactive Weather Map
Tropical Storm Tracking
New forecast layout! Learn more

10-Day Weather Forecast

Advertisements
Track Severe Weather on mobile